createdAt,value
2023-05-05T00:00:54.001Z,11.88
2023-05-05T00:01:54.017Z,11.88
2023-05-05T00:02:54.012Z,11.86
2023-05-05T00:03:54.004Z,11.90
2023-05-05T00:04:53.978Z,11.86
2023-05-05T00:05:53.945Z,11.85
2023-05-05T00:06:53.933Z,11.90
2023-05-05T00:07:53.891Z,11.85
2023-05-05T00:08:53.930Z,11.85
2023-05-05T00:09:53.895Z,11.86
2023-05-05T00:10:53.892Z,11.80
2023-05-05T00:11:53.870Z,11.85
2023-05-05T00:12:53.913Z,11.85
2023-05-05T00:13:53.864Z,11.80
2023-05-05T00:14:53.922Z,11.83
2023-05-05T00:15:53.835Z,11.82
2023-05-05T00:16:53.910Z,11.83
2023-05-05T00:17:53.838Z,11.83
2023-05-05T00:18:53.797Z,11.85
2023-05-05T00:19:53.796Z,11.79
2023-05-05T00:20:53.846Z,11.80
2023-05-05T00:21:53.761Z,11.80
2023-05-05T00:22:53.767Z,11.82
2023-05-05T00:23:53.731Z,11.79
2023-05-05T00:24:53.729Z,11.80
2023-05-05T00:25:53.788Z,11.78
2023-05-05T00:26:53.728Z,11.76
2023-05-05T00:27:53.679Z,11.79
2023-05-05T00:28:53.679Z,11.80
2023-05-05T00:29:53.694Z,11.78
2023-05-05T00:30:53.699Z,11.75
2023-05-05T00:31:53.679Z,11.70
2023-05-05T00:32:53.676Z,11.75
2023-05-05T00:33:53.626Z,11.75
2023-05-05T00:34:53.649Z,11.72
2023-05-05T00:35:53.696Z,11.73
2023-05-05T00:36:53.644Z,11.75
2023-05-05T00:37:53.595Z,11.75
2023-05-05T00:38:53.585Z,11.75
2023-05-05T00:39:53.809Z,11.75
2023-05-05T00:40:53.584Z,11.73
2023-05-05T00:41:53.559Z,11.73
2023-05-05T00:42:54.244Z,11.70
2023-05-05T00:43:53.611Z,11.70
2023-05-05T00:44:53.542Z,11.72
2023-05-05T00:45:53.529Z,11.69
2023-05-05T00:46:53.593Z,11.67
2023-05-05T00:47:53.585Z,11.69
2023-05-05T00:48:53.576Z,11.67
2023-05-05T00:49:53.525Z,11.65
2023-05-05T00:50:53.469Z,11.69
2023-05-05T00:51:53.430Z,11.70
2023-05-05T00:52:53.441Z,11.69
2023-05-05T00:53:53.476Z,11.70
2023-05-05T00:54:53.460Z,11.69
2023-05-05T00:55:53.398Z,11.64
2023-05-05T00:56:53.408Z,11.70
2023-05-05T00:57:53.448Z,11.69
2023-05-05T00:58:53.409Z,11.67
2023-05-05T00:59:53.421Z,11.65
2023-05-05T01:00:53.373Z,11.60
2023-05-05T01:01:53.392Z,11.61
2023-05-05T01:02:53.462Z,11.60
2023-05-05T01:03:53.495Z,11.58
2023-05-05T01:04:53.345Z,11.57
2023-05-05T01:05:53.332Z,11.54
2023-05-05T01:06:53.371Z,11.62
2023-05-05T01:07:53.333Z,11.58
2023-05-05T01:08:53.271Z,11.57
2023-05-05T01:10:15.278Z,11.57
2023-05-05T01:10:54.239Z,11.54
2023-05-05T01:11:53.263Z,11.55
2023-05-05T01:12:53.421Z,11.54
2023-05-05T01:13:53.200Z,11.55
2023-05-05T01:14:53.217Z,11.54
2023-05-05T01:15:53.315Z,11.54
2023-05-05T01:16:53.215Z,11.47
2023-05-05T01:17:53.274Z,11.46
2023-05-05T01:18:53.184Z,11.46
2023-05-05T01:19:53.168Z,11.46
2023-05-05T01:20:53.169Z,11.47
2023-05-05T01:21:53.169Z,11.44
2023-05-05T01:22:53.215Z,11.46
2023-05-05T01:23:53.107Z,11.39
2023-05-05T01:24:53.118Z,11.44
2023-05-05T01:25:53.141Z,11.39
2023-05-05T01:26:53.853Z,11.39
2023-05-05T01:27:53.069Z,11.39
2023-05-05T01:28:53.177Z,11.39
2023-05-05T01:29:53.241Z,11.35
2023-05-05T01:30:53.118Z,11.36
2023-05-05T01:31:53.186Z,11.36
2023-05-05T01:32:53.022Z,11.37
2023-05-05T01:33:53.106Z,11.36
2023-05-05T01:34:53.115Z,11.35
2023-05-05T01:35:53.081Z,11.33
2023-05-05T01:36:53.008Z,11.29
2023-05-05T01:37:53.017Z,11.36
2023-05-05T01:38:52.970Z,11.32
2023-05-05T01:39:52.947Z,11.33
2023-05-05T01:40:52.935Z,11.32
2023-05-05T01:41:52.911Z,11.29
2023-05-05T01:42:52.950Z,11.33
2023-05-05T01:43:52.976Z,11.25
2023-05-05T01:44:52.898Z,11.22
2023-05-05T01:45:52.950Z,11.25
2023-05-05T01:46:52.928Z,11.24
2023-05-05T01:47:52.951Z,11.25
2023-05-05T01:48:52.900Z,11.22
2023-05-05T01:49:52.889Z,11.22
2023-05-05T01:50:52.814Z,11.19
2023-05-05T01:51:52.935Z,11.21
2023-05-05T01:52:52.867Z,11.17
2023-05-05T01:53:52.815Z,11.15
2023-05-05T01:54:52.805Z,11.18
2023-05-05T01:55:52.789Z,11.14
2023-05-05T01:56:52.763Z,11.15
2023-05-05T01:57:52.766Z,11.10
2023-05-05T01:58:52.737Z,11.14
2023-05-05T01:59:52.737Z,11.11
2023-05-05T02:00:52.770Z,11.10
2023-05-05T02:01:52.744Z,11.10
2023-05-05T02:02:52.769Z,11.10
2023-05-05T02:03:52.716Z,11.10
2023-05-05T02:04:52.741Z,11.09
2023-05-05T02:05:52.663Z,11.04
2023-05-05T02:06:52.680Z,11.11
2023-05-05T02:07:52.668Z,11.09
2023-05-05T02:08:52.643Z,11.06
2023-05-05T02:09:52.657Z,11.06
2023-05-05T02:10:52.624Z,11.07
2023-05-05T02:11:52.719Z,11.04
2023-05-05T02:12:52.686Z,11.04
2023-05-05T02:13:52.836Z,11.04
2023-05-05T02:14:52.617Z,11.04
2023-05-05T02:15:52.611Z,11.02
2023-05-05T02:16:52.623Z,11.03
2023-05-05T02:17:52.695Z,11.03
2023-05-05T02:18:52.570Z,11.03
2023-05-05T02:19:52.545Z,11.04
2023-05-05T02:20:52.533Z,11.04
2023-05-05T02:21:52.510Z,11.03
2023-05-05T02:22:52.497Z,11.02
2023-05-05T02:23:52.505Z,11.00
2023-05-05T02:24:52.538Z,11.00
2023-05-05T02:25:52.512Z,11.00
2023-05-05T02:26:52.527Z,11.03
2023-05-05T02:27:52.489Z,11.03
2023-05-05T02:28:52.447Z,10.99
2023-05-05T02:29:52.449Z,11.00
2023-05-05T02:30:52.445Z,11.03
2023-05-05T02:31:52.694Z,11.02
2023-05-05T02:32:52.447Z,11.03
2023-05-05T02:33:52.493Z,11.02
2023-05-05T02:34:52.381Z,11.02
2023-05-05T02:35:52.390Z,11.04
2023-05-05T02:36:52.408Z,11.03
2023-05-05T02:37:52.368Z,11.02
2023-05-05T02:38:52.370Z,11.02
2023-05-05T02:39:52.406Z,11.03
2023-05-05T02:40:52.330Z,11.02
2023-05-05T02:41:52.289Z,11.03
2023-05-05T02:42:52.950Z,11.03
2023-05-05T02:43:52.300Z,11.02
2023-05-05T02:44:52.293Z,11.00
2023-05-05T02:45:52.342Z,10.99
2023-05-05T02:46:52.282Z,11.04
2023-05-05T02:47:52.255Z,11.02
2023-05-05T02:48:52.177Z,10.99
2023-05-05T02:49:52.254Z,11.02
2023-05-05T02:50:52.178Z,11.02
2023-05-05T02:51:52.303Z,11.02
2023-05-05T02:52:52.168Z,11.00
2023-05-05T02:53:52.106Z,10.99
2023-05-05T02:54:52.103Z,11.00
2023-05-05T02:55:52.187Z,10.96
2023-05-05T02:56:52.113Z,10.94
2023-05-05T02:57:52.103Z,10.99
2023-05-05T02:58:52.080Z,10.91
2023-05-05T02:59:52.131Z,10.91
2023-05-05T03:00:52.050Z,10.96
2023-05-05T03:01:52.133Z,10.92
2023-05-05T03:02:52.108Z,10.91
2023-05-05T03:03:52.322Z,10.91
2023-05-05T03:04:52.001Z,10.94
2023-05-05T03:05:51.987Z,10.89
2023-05-05T03:06:52.003Z,10.94
2023-05-05T03:07:51.965Z,10.89
2023-05-05T03:08:52.020Z,10.88
2023-05-05T03:09:51.989Z,10.91
2023-05-05T03:10:51.973Z,10.89
2023-05-05T03:11:51.962Z,10.88
2023-05-05T03:12:51.968Z,10.89
2023-05-05T03:13:51.993Z,10.88
2023-05-05T03:14:51.923Z,10.85
2023-05-05T03:15:51.908Z,10.85
2023-05-05T03:16:51.918Z,10.82
2023-05-05T03:17:51.967Z,10.84
2023-05-05T03:18:51.922Z,10.84
2023-05-05T03:19:51.853Z,10.85
2023-05-05T03:20:51.882Z,10.82
2023-05-05T03:21:51.891Z,10.84
2023-05-05T03:22:51.901Z,10.85
2023-05-05T03:23:51.824Z,10.85
2023-05-05T03:24:51.944Z,10.84
2023-05-05T03:25:51.813Z,10.79
2023-05-05T03:26:51.759Z,10.81
2023-05-05T03:27:51.796Z,10.81
2023-05-05T03:28:51.774Z,10.81
2023-05-05T03:29:51.752Z,10.81
2023-05-05T03:30:51.757Z,10.82
2023-05-05T03:31:51.758Z,10.78
2023-05-05T03:32:51.783Z,10.76
2023-05-05T03:33:51.705Z,10.71
2023-05-05T03:34:51.961Z,10.74
2023-05-05T03:35:51.709Z,10.79
2023-05-05T03:36:51.709Z,10.74
2023-05-05T03:37:51.676Z,10.70
2023-05-05T03:38:51.686Z,10.76
2023-05-05T03:39:51.675Z,10.74
2023-05-05T03:40:51.648Z,10.68
2023-05-05T03:41:51.720Z,10.73
2023-05-05T03:42:51.626Z,10.73
2023-05-05T03:43:51.658Z,10.71
2023-05-05T03:44:51.594Z,10.70
2023-05-05T03:45:51.596Z,10.68
2023-05-05T03:46:51.596Z,10.67
2023-05-05T03:47:51.617Z,10.68
2023-05-05T03:48:51.586Z,10.70
2023-05-05T03:49:51.511Z,10.66
2023-05-05T03:50:51.544Z,10.68
2023-05-05T03:51:51.540Z,10.64
2023-05-05T03:52:51.552Z,10.66
2023-05-05T03:53:51.488Z,10.64
2023-05-05T03:54:51.473Z,10.66
2023-05-05T03:55:51.488Z,10.64
2023-05-05T03:56:51.468Z,10.66
2023-05-05T03:57:51.468Z,10.64
2023-05-05T03:58:51.458Z,10.61
2023-05-05T03:59:51.448Z,10.61
2023-05-05T04:00:51.464Z,10.66
2023-05-05T04:01:51.402Z,10.66
2023-05-05T04:02:51.525Z,10.63
2023-05-05T04:03:51.442Z,10.61
2023-05-05T04:04:51.388Z,10.61
2023-05-05T04:05:51.453Z,10.63
2023-05-05T04:06:51.366Z,10.63
2023-05-05T04:07:51.353Z,10.60
2023-05-05T04:08:51.415Z,10.63
2023-05-05T04:09:51.366Z,10.61
2023-05-05T04:10:51.312Z,10.60
2023-05-05T04:11:51.334Z,10.61
2023-05-05T04:12:51.462Z,10.59
2023-05-05T04:13:51.337Z,10.59
2023-05-05T04:14:51.284Z,10.64
2023-05-05T04:15:51.275Z,10.60
2023-05-05T04:16:51.247Z,10.61
2023-05-05T04:17:51.264Z,10.64
2023-05-05T04:18:51.262Z,10.66
2023-05-05T04:19:51.242Z,10.66
2023-05-05T04:20:51.207Z,10.63
2023-05-05T04:21:51.260Z,10.64
2023-05-05T04:22:52.727Z,10.66
2023-05-05T04:23:51.184Z,10.64
2023-05-05T04:24:51.258Z,10.68
2023-05-05T04:25:51.182Z,10.67
2023-05-05T04:26:51.203Z,10.70
2023-05-05T04:27:51.157Z,10.70
2023-05-05T04:28:51.170Z,10.66
2023-05-05T04:29:51.151Z,10.68
2023-05-05T04:30:51.193Z,10.71
2023-05-05T04:31:51.105Z,10.70
2023-05-05T04:32:51.149Z,10.74
2023-05-05T04:33:51.089Z,10.74
2023-05-05T04:34:51.089Z,10.79
2023-05-05T04:35:51.103Z,10.82
2023-05-05T04:36:51.176Z,10.84
2023-05-05T04:37:51.063Z,10.82
2023-05-05T04:38:51.119Z,10.89
2023-05-05T04:39:51.082Z,10.91
2023-05-05T04:40:51.126Z,10.97
2023-05-05T04:41:51.807Z,10.97
2023-05-05T04:42:50.999Z,10.97
2023-05-05T04:43:51.004Z,11.03
2023-05-05T04:44:50.988Z,11.04
2023-05-05T04:45:50.971Z,11.09
2023-05-05T04:46:51.068Z,11.17
2023-05-05T04:47:50.986Z,11.29
2023-05-05T04:48:50.932Z,11.65
2023-05-05T04:49:50.939Z,12.12
2023-05-05T04:50:50.873Z,12.37
2023-05-05T04:51:50.905Z,12.78
2023-05-05T04:52:52.555Z,12.71
2023-05-05T04:53:50.898Z,12.72
2023-05-05T04:54:50.846Z,12.75
2023-05-05T04:55:50.887Z,12.71
2023-05-05T04:56:50.862Z,12.56
2023-05-05T04:57:50.881Z,12.49
2023-05-05T04:58:50.804Z,12.53
2023-05-05T04:59:50.858Z,12.89
2023-05-05T05:00:50.794Z,13.10
2023-05-05T05:01:50.790Z,12.87
2023-05-05T05:02:50.933Z,12.74
2023-05-05T05:03:50.814Z,13.08
2023-05-05T05:04:50.769Z,13.45
2023-05-05T05:05:50.782Z,13.57
2023-05-05T05:06:50.849Z,13.62
2023-05-05T05:07:50.740Z,13.64
2023-05-05T05:08:50.705Z,13.78
2023-05-05T05:09:50.792Z,14.06
2023-05-05T05:10:50.821Z,14.29
2023-05-05T05:11:50.700Z,14.43
2023-05-05T05:12:50.715Z,14.35
2023-05-05T05:13:51.063Z,13.88
2023-05-05T05:14:50.661Z,13.55
2023-05-05T05:15:50.654Z,13.87
2023-05-05T05:16:50.820Z,14.20
2023-05-05T05:17:50.675Z,14.18
2023-05-05T05:18:50.637Z,13.99
2023-05-05T05:19:50.588Z,14.14
2023-05-05T05:20:50.626Z,14.36
2023-05-05T05:21:50.743Z,14.40
2023-05-05T05:22:50.570Z,14.39
2023-05-05T05:23:50.556Z,14.55
2023-05-05T05:24:50.568Z,14.42
2023-05-05T05:25:50.630Z,14.61
2023-05-05T05:26:50.542Z,14.94
2023-05-05T05:28:02.302Z,15.16
2023-05-05T05:28:51.560Z,15.09
2023-05-05T05:29:50.543Z,14.95
2023-05-05T05:30:50.570Z,14.62
2023-05-05T05:31:50.635Z,14.40
2023-05-05T05:32:50.488Z,14.57
2023-05-05T05:33:50.541Z,14.72
2023-05-05T05:34:50.425Z,14.75
2023-05-05T05:35:50.411Z,14.64
2023-05-05T05:36:50.451Z,14.50
2023-05-05T05:37:50.401Z,14.80
2023-05-05T05:38:50.407Z,14.94
2023-05-05T05:39:50.419Z,15.17
2023-05-05T05:40:50.384Z,15.41
2023-05-05T05:41:50.483Z,15.51
2023-05-05T05:42:50.360Z,15.67
2023-05-05T05:43:50.363Z,15.44
2023-05-05T05:44:50.406Z,15.35
2023-05-05T05:45:50.331Z,15.21
2023-05-05T05:46:50.327Z,15.17
2023-05-05T05:47:50.356Z,15.25
2023-05-05T05:48:50.410Z,15.29
2023-05-05T05:49:50.277Z,15.31
2023-05-05T05:50:50.291Z,15.29
2023-05-05T05:51:50.245Z,15.36
2023-05-05T05:52:50.360Z,15.41
2023-05-05T05:53:50.211Z,15.68
2023-05-05T05:54:50.213Z,16.01
2023-05-05T05:55:50.299Z,16.33
2023-05-05T05:56:50.279Z,16.42
2023-05-05T05:57:50.218Z,16.14
2023-05-05T05:58:50.208Z,15.57
2023-05-05T05:59:50.235Z,15.41
2023-05-05T06:00:50.696Z,15.82
2023-05-05T06:01:50.250Z,16.48
2023-05-05T06:02:50.238Z,16.66
2023-05-05T06:03:50.288Z,16.70
2023-05-05T06:04:50.164Z,16.78
2023-05-05T06:05:50.312Z,16.98
2023-05-05T06:06:50.245Z,17.22
2023-05-05T06:07:50.118Z,17.14
2023-05-05T06:08:50.104Z,16.91
2023-05-05T06:09:50.200Z,16.63
2023-05-05T06:10:50.079Z,16.78
2023-05-05T06:11:50.191Z,16.83
2023-05-05T06:12:50.060Z,16.35
2023-05-05T06:13:50.096Z,15.75
2023-05-05T06:14:50.017Z,15.67
2023-05-05T06:15:50.099Z,15.76
2023-05-05T06:16:50.056Z,15.60
2023-05-05T06:17:50.053Z,15.21
2023-05-05T06:18:49.986Z,14.75
2023-05-05T06:19:49.977Z,14.46
2023-05-05T06:20:50.082Z,14.29
2023-05-05T06:21:49.929Z,14.33
2023-05-05T06:22:49.984Z,14.40
2023-05-05T06:23:49.928Z,14.43
2023-05-05T06:24:49.949Z,14.42
2023-05-05T06:25:50.032Z,14.28
2023-05-05T06:26:50.098Z,14.65
2023-05-05T06:27:49.928Z,15.01
2023-05-05T06:28:49.877Z,15.20
2023-05-05T06:29:49.848Z,14.89
2023-05-05T06:30:50.118Z,14.40
2023-05-05T06:31:49.856Z,14.21
2023-05-05T06:32:50.166Z,14.09
2023-05-05T06:33:49.873Z,14.51
2023-05-05T06:34:50.122Z,14.25
2023-05-05T06:35:49.858Z,14.06
2023-05-05T06:36:49.876Z,14.40
2023-05-05T06:37:49.795Z,15.03
2023-05-05T06:38:50.143Z,15.43
2023-05-05T06:39:49.738Z,15.65
2023-05-05T06:40:50.132Z,15.76
2023-05-05T06:41:49.773Z,16.01
2023-05-05T06:42:50.093Z,15.78
2023-05-05T06:43:49.734Z,15.21
2023-05-05T06:44:49.705Z,15.20
2023-05-05T06:45:49.724Z,15.87
2023-05-05T06:46:49.756Z,15.92
2023-05-05T06:47:49.689Z,15.57
2023-05-05T06:48:49.656Z,15.39
2023-05-05T06:49:49.673Z,15.54
2023-05-05T06:50:49.672Z,15.34
2023-05-05T06:51:49.713Z,15.14
2023-05-05T06:52:49.607Z,15.31
2023-05-05T06:53:49.605Z,15.56
2023-05-05T06:54:49.596Z,15.67
2023-05-05T06:55:49.841Z,15.71
2023-05-05T06:56:49.690Z,15.36
2023-05-05T06:57:49.683Z,15.39
2023-05-05T06:58:49.563Z,15.01
2023-05-05T06:59:49.548Z,15.03
2023-05-05T07:00:49.563Z,14.83
2023-05-05T07:01:49.587Z,14.62
2023-05-05T07:02:49.524Z,14.39
2023-05-05T07:03:49.605Z,14.35
2023-05-05T07:04:49.494Z,14.25
2023-05-05T07:05:49.746Z,14.27
2023-05-05T07:06:49.478Z,14.33
2023-05-05T07:07:49.457Z,14.50
2023-05-05T07:08:49.470Z,14.46
2023-05-05T07:09:49.525Z,14.45
2023-05-05T07:10:49.414Z,14.36
2023-05-05T07:11:49.437Z,14.24
2023-05-05T07:12:49.514Z,14.22
2023-05-05T07:13:49.516Z,14.15
2023-05-05T07:14:49.398Z,14.12
2023-05-05T07:15:49.357Z,14.22
2023-05-05T07:16:49.401Z,14.28
2023-05-05T07:17:49.435Z,14.32
2023-05-05T07:18:49.358Z,14.20
2023-05-05T07:19:49.345Z,14.14
2023-05-05T07:20:49.323Z,14.17
2023-05-05T07:21:49.311Z,14.29
2023-05-05T07:22:49.320Z,14.15
2023-05-05T07:23:49.297Z,14.14
2023-05-05T07:24:49.870Z,14.21
2023-05-05T07:25:49.323Z,14.28
2023-05-05T07:26:49.310Z,14.29
2023-05-05T07:27:49.308Z,14.42
2023-05-05T07:28:49.264Z,14.47
2023-05-05T07:29:49.238Z,14.46
2023-05-05T07:30:49.455Z,14.51
2023-05-05T07:31:49.526Z,14.62
2023-05-05T07:32:49.663Z,14.68
2023-05-05T07:33:49.403Z,14.69
2023-05-05T07:34:49.366Z,14.61
2023-05-05T07:35:49.960Z,14.51
2023-05-05T07:36:49.382Z,14.50
2023-05-05T07:37:49.295Z,14.57
2023-05-05T07:38:49.345Z,14.54
2023-05-05T07:39:49.316Z,14.46
2023-05-05T07:40:49.254Z,14.42
2023-05-05T07:41:49.601Z,14.37
2023-05-05T07:42:49.396Z,14.43
2023-05-05T07:43:49.847Z,14.37
2023-05-05T07:44:49.067Z,14.39
2023-05-05T07:45:49.165Z,14.50
2023-05-05T07:46:49.172Z,14.54
2023-05-05T07:47:49.339Z,14.51
2023-05-05T07:48:49.090Z,14.57
2023-05-05T07:49:49.125Z,14.70
2023-05-05T07:50:49.009Z,14.78
2023-05-05T07:51:49.190Z,14.77
2023-05-05T07:52:53.946Z,14.86
2023-05-05T07:53:50.294Z,14.86
2023-05-05T07:54:49.113Z,14.80
2023-05-05T07:55:49.049Z,14.77
2023-05-05T07:56:49.063Z,14.92
2023-05-05T07:57:49.189Z,14.89
2023-05-05T07:58:48.904Z,14.95
2023-05-05T07:59:49.276Z,14.92
2023-05-05T08:00:49.294Z,14.96
2023-05-05T08:01:50.313Z,14.92
2023-05-05T08:02:48.967Z,14.92
2023-05-05T08:03:49.023Z,14.89
2023-05-05T08:04:48.968Z,14.91
2023-05-05T08:05:50.620Z,14.98
2023-05-05T08:06:48.850Z,15.07
2023-05-05T08:07:48.852Z,15.01
2023-05-05T08:08:48.863Z,15.02
2023-05-05T08:09:48.806Z,15.10
2023-05-05T08:10:48.784Z,15.19
2023-05-05T08:11:48.793Z,15.31
2023-05-05T08:12:48.782Z,15.47
2023-05-05T08:13:48.862Z,15.46
2023-05-05T08:14:48.755Z,15.41
2023-05-05T08:15:48.918Z,15.39
2023-05-05T08:16:48.741Z,15.39
2023-05-05T08:17:48.836Z,15.47
2023-05-05T08:18:48.729Z,15.51
2023-05-05T08:19:48.730Z,15.46
2023-05-05T08:20:48.840Z,15.57
2023-05-05T08:21:48.686Z,15.72
2023-05-05T08:22:48.686Z,15.92
2023-05-05T08:23:48.694Z,16.04
2023-05-05T08:24:48.700Z,16.07
2023-05-05T08:25:48.627Z,16.12
2023-05-05T08:26:48.664Z,16.11
2023-05-05T08:27:48.620Z,16.23
2023-05-05T08:28:48.742Z,16.38
2023-05-05T08:29:48.582Z,16.41
2023-05-05T08:30:48.595Z,16.24
2023-05-05T08:31:48.672Z,16.15
2023-05-05T08:32:48.655Z,16.20
2023-05-05T08:33:48.615Z,16.12
2023-05-05T08:34:48.535Z,16.12
2023-05-05T08:35:48.534Z,16.25
2023-05-05T08:36:48.536Z,16.21
2023-05-05T08:37:52.625Z,16.00
2023-05-05T08:38:48.530Z,15.89
2023-05-05T08:39:48.525Z,15.92
2023-05-05T08:40:48.525Z,15.97
2023-05-05T08:41:48.483Z,16.12
2023-05-05T08:42:48.601Z,16.24
2023-05-05T08:43:48.444Z,16.24
2023-05-05T08:44:48.413Z,16.24
2023-05-05T08:45:48.468Z,16.43
2023-05-05T08:46:48.579Z,16.48
2023-05-05T08:47:48.492Z,16.57
2023-05-05T08:48:48.413Z,16.64
2023-05-05T08:49:48.464Z,16.76
2023-05-05T08:50:48.409Z,16.67
2023-05-05T08:51:48.373Z,16.68
2023-05-05T08:52:50.651Z,16.75
2023-05-05T08:53:48.383Z,16.82
2023-05-05T08:54:48.321Z,16.82
2023-05-05T08:55:48.376Z,16.76
2023-05-05T08:56:48.381Z,16.76
2023-05-05T08:57:48.301Z,16.70
2023-05-05T08:58:48.318Z,16.78
2023-05-05T08:59:48.304Z,16.78
2023-05-05T09:00:48.309Z,16.88
2023-05-05T09:01:48.275Z,16.98
2023-05-05T09:02:49.104Z,17.11
2023-05-05T09:03:48.336Z,17.07
2023-05-05T09:04:48.274Z,17.06
2023-05-05T09:05:48.260Z,16.96
2023-05-05T09:06:48.197Z,16.91
2023-05-05T09:07:48.252Z,16.91
2023-05-05T09:08:48.232Z,17.08
2023-05-05T09:09:48.234Z,17.14
2023-05-05T09:10:48.334Z,17.11
2023-05-05T09:11:48.420Z,17.08
2023-05-05T09:12:48.238Z,17.15
2023-05-05T09:13:48.198Z,17.21
2023-05-05T09:14:48.607Z,17.36
2023-05-05T09:15:48.142Z,17.44
2023-05-05T09:16:48.279Z,17.43
2023-05-05T09:17:48.116Z,17.63
2023-05-05T09:18:48.157Z,17.51
2023-05-05T09:19:48.152Z,17.52
2023-05-05T09:20:48.095Z,17.59
2023-05-05T09:21:48.054Z,17.58
2023-05-05T09:22:48.051Z,17.66
2023-05-05T09:23:48.035Z,17.86
2023-05-05T09:24:48.035Z,17.66
2023-05-05T09:25:48.018Z,17.63
2023-05-05T09:26:48.037Z,17.68
2023-05-05T09:27:47.997Z,17.70
2023-05-05T09:28:48.103Z,17.62
2023-05-05T09:29:48.005Z,17.72
2023-05-05T09:30:47.993Z,17.74
2023-05-05T09:31:47.964Z,17.75
2023-05-05T09:32:47.985Z,17.79
2023-05-05T09:33:47.940Z,17.79
2023-05-05T09:34:47.974Z,17.79
2023-05-05T09:35:47.937Z,17.86
2023-05-05T09:36:48.087Z,17.72
2023-05-05T09:37:47.935Z,17.66
2023-05-05T09:38:48.032Z,17.86
2023-05-05T09:39:47.920Z,17.95
2023-05-05T09:40:48.181Z,17.99
2023-05-05T09:41:47.875Z,18.15
2023-05-05T09:42:48.025Z,18.15
2023-05-05T09:43:47.841Z,18.12
2023-05-05T09:44:48.193Z,17.99
2023-05-05T09:45:47.864Z,18.12
2023-05-05T09:46:47.918Z,18.33
2023-05-05T09:47:47.991Z,18.58
2023-05-05T09:48:47.962Z,18.67
2023-05-05T09:49:48.047Z,18.50
2023-05-05T09:50:47.811Z,18.37
2023-05-05T09:51:47.792Z,18.36
2023-05-05T09:52:48.151Z,18.52
2023-05-05T09:53:47.751Z,18.32
2023-05-05T09:54:47.707Z,17.96
2023-05-05T09:55:47.711Z,17.90
2023-05-05T09:56:47.718Z,17.95
2023-05-05T09:57:47.700Z,18.03
2023-05-05T09:58:47.745Z,18.14
2023-05-05T09:59:47.681Z,18.27
2023-05-05T10:00:47.782Z,18.39
2023-05-05T10:01:47.705Z,18.52
2023-05-05T10:02:47.699Z,18.65
2023-05-05T10:03:47.671Z,18.65
2023-05-05T10:04:47.702Z,18.65
2023-05-05T10:05:47.706Z,18.44
2023-05-05T10:06:47.590Z,18.51
2023-05-05T10:07:47.687Z,18.47
2023-05-05T10:08:47.605Z,18.70
2023-05-05T10:09:47.744Z,18.73
2023-05-05T10:10:47.595Z,18.62
2023-05-05T10:11:47.547Z,18.52
2023-05-05T10:12:47.659Z,18.55
2023-05-05T10:13:47.577Z,18.48
2023-05-05T10:14:47.502Z,18.58
2023-05-05T10:15:49.035Z,18.55
2023-05-05T10:16:47.692Z,18.54
2023-05-05T10:18:02.278Z,18.50
2023-05-05T10:18:48.544Z,18.58
2023-05-05T10:19:47.471Z,18.65
2023-05-05T10:20:47.418Z,18.60
2023-05-05T10:21:47.536Z,18.60
2023-05-05T10:22:47.573Z,18.69
2023-05-05T10:23:47.416Z,18.63
2023-05-05T10:24:47.421Z,18.66
2023-05-05T10:25:47.396Z,18.66
2023-05-05T10:26:47.422Z,18.70
2023-05-05T10:27:47.446Z,18.63
2023-05-05T10:28:47.346Z,18.60
2023-05-05T10:29:47.455Z,18.60
2023-05-05T10:30:47.320Z,18.66
2023-05-05T10:31:47.476Z,18.55
2023-05-05T10:32:57.366Z,18.67
2023-05-05T10:33:48.459Z,18.70
2023-05-05T10:34:47.351Z,18.82
2023-05-05T10:35:47.361Z,18.99
2023-05-05T10:36:48.232Z,18.98
2023-05-05T10:37:47.282Z,18.90
2023-05-05T10:38:47.330Z,18.91
2023-05-05T10:39:47.294Z,19.06
2023-05-05T10:40:47.301Z,19.07
2023-05-05T10:41:47.319Z,18.94
2023-05-05T10:42:47.410Z,18.90
2023-05-05T10:43:47.207Z,19.00
2023-05-05T10:44:47.347Z,19.26
2023-05-05T10:45:47.258Z,19.46
2023-05-05T10:46:47.227Z,19.46
2023-05-05T10:47:47.238Z,19.50
2023-05-05T10:48:47.312Z,19.46
2023-05-05T10:49:47.134Z,19.46
2023-05-05T10:50:47.406Z,19.33
2023-05-05T10:51:47.138Z,19.14
2023-05-05T10:52:48.118Z,19.07
2023-05-05T10:53:47.181Z,19.06
2023-05-05T10:54:47.234Z,19.13
2023-05-05T10:55:47.096Z,19.23
2023-05-05T10:56:47.148Z,19.33
2023-05-05T10:57:47.117Z,19.41
2023-05-05T10:58:58.846Z,19.54
2023-05-05T10:59:48.044Z,19.59
2023-05-05T11:00:47.026Z,19.59
2023-05-05T11:01:47.070Z,19.63
2023-05-05T11:02:47.012Z,19.66
2023-05-05T11:03:47.070Z,19.39
2023-05-05T11:04:46.975Z,19.39
2023-05-05T11:05:46.975Z,19.41
2023-05-05T11:06:47.157Z,19.54
2023-05-05T11:07:47.022Z,19.68
2023-05-05T11:08:46.991Z,19.84
2023-05-05T11:09:46.985Z,19.71
2023-05-05T11:10:46.926Z,19.55
2023-05-05T11:11:46.943Z,19.41
2023-05-05T11:12:46.961Z,19.44
2023-05-05T11:13:46.875Z,19.48
2023-05-05T11:14:46.903Z,19.68
2023-05-05T11:15:46.946Z,19.91
2023-05-05T11:16:46.930Z,19.76
2023-05-05T11:17:46.893Z,19.74
2023-05-05T11:18:46.890Z,19.87
2023-05-05T11:19:46.797Z,19.86
2023-05-05T11:20:46.830Z,20.03
2023-05-05T11:21:47.001Z,20.06
2023-05-05T11:22:46.773Z,20.05
2023-05-05T11:23:46.762Z,19.86
2023-05-05T11:24:46.897Z,19.80
2023-05-05T11:25:46.790Z,19.91
2023-05-05T11:26:46.866Z,20.10
2023-05-05T11:27:46.728Z,20.14
2023-05-05T11:28:46.746Z,20.24
2023-05-05T11:29:46.742Z,20.31
2023-05-05T11:30:46.792Z,20.33
2023-05-05T11:31:46.748Z,20.11
2023-05-05T11:32:46.661Z,19.95
2023-05-05T11:33:46.732Z,19.87
2023-05-05T11:34:46.670Z,19.77
2023-05-05T11:35:46.679Z,19.76
2023-05-05T11:36:46.664Z,19.87
2023-05-05T11:37:46.610Z,19.88
2023-05-05T11:38:46.648Z,19.98
2023-05-05T11:39:46.642Z,19.80
2023-05-05T11:40:46.648Z,19.63
2023-05-05T11:41:46.632Z,19.68
2023-05-05T11:42:46.674Z,19.69
2023-05-05T11:43:46.605Z,19.78
2023-05-05T11:44:46.609Z,19.80
2023-05-05T11:45:46.566Z,19.76
2023-05-05T11:46:46.950Z,19.77
2023-05-05T11:47:46.812Z,19.74
2023-05-05T11:48:46.555Z,19.76
2023-05-05T11:49:46.539Z,19.80
2023-05-05T11:50:46.533Z,19.78
2023-05-05T11:51:46.634Z,19.81
2023-05-05T11:52:46.450Z,19.86
2023-05-05T11:53:46.546Z,20.10
2023-05-05T11:54:46.533Z,20.16
2023-05-05T11:55:46.456Z,20.06
2023-05-05T11:56:48.529Z,19.86
2023-05-05T11:57:46.496Z,19.87
2023-05-05T11:58:46.409Z,19.92
2023-05-05T11:59:48.385Z,19.98
2023-05-05T12:00:46.402Z,19.99
2023-05-05T12:01:46.422Z,19.95
2023-05-05T12:02:46.488Z,20.02
2023-05-05T12:03:46.522Z,20.26
2023-05-05T12:04:46.379Z,20.28
2023-05-05T12:05:46.337Z,20.26
2023-05-05T12:06:46.497Z,20.24
2023-05-05T12:07:46.470Z,20.21
2023-05-05T12:08:46.296Z,20.23
2023-05-05T12:09:46.291Z,20.20
2023-05-05T12:10:46.294Z,20.17
2023-05-05T12:11:46.246Z,20.26
2023-05-05T12:12:46.331Z,20.20
2023-05-05T12:13:46.391Z,20.11
2023-05-05T12:14:46.261Z,20.01
2023-05-05T12:15:46.222Z,20.08
2023-05-05T12:16:46.307Z,20.11
2023-05-05T12:17:46.370Z,20.20
2023-05-05T12:18:46.200Z,20.21
2023-05-05T12:19:46.227Z,20.24
2023-05-05T12:20:46.223Z,20.36
2023-05-05T12:21:46.161Z,20.41
2023-05-05T12:22:46.237Z,20.26
2023-05-05T12:23:46.145Z,20.08
2023-05-05T12:24:46.152Z,20.16
2023-05-05T12:25:46.129Z,20.18
2023-05-05T12:26:46.118Z,20.28
2023-05-05T12:27:46.160Z,20.39
2023-05-05T12:28:46.111Z,20.33
2023-05-05T12:29:46.105Z,20.36
2023-05-05T12:30:46.159Z,20.42
2023-05-05T12:31:46.250Z,20.55
2023-05-05T12:32:46.081Z,20.48
2023-05-05T12:33:46.060Z,20.50
2023-05-05T12:34:46.114Z,20.54
2023-05-05T12:35:46.048Z,20.52
2023-05-05T12:36:46.180Z,20.47
2023-05-05T12:37:46.116Z,20.48
2023-05-05T12:38:46.027Z,20.62
2023-05-05T12:39:45.963Z,20.57
2023-05-05T12:40:46.040Z,20.39
2023-05-05T12:41:45.974Z,20.41
2023-05-05T12:42:46.455Z,20.64
2023-05-05T12:43:45.948Z,20.82
2023-05-05T12:44:45.990Z,20.97
2023-05-05T12:45:45.936Z,21.04
2023-05-05T12:46:46.047Z,21.03
2023-05-05T12:47:45.974Z,20.91
2023-05-05T12:48:48.317Z,20.79
2023-05-05T12:49:45.909Z,20.85
2023-05-05T12:50:45.853Z,20.97
2023-05-05T12:51:45.859Z,20.95
2023-05-05T12:52:45.848Z,20.76